Latest Weather Observations for Yarrawonga

IDV60801

Issued at 9:35 am EDT Wednesday 26 November 2014 (issued every 30 minutes, with the page automatically refreshed every 10 minutes)

About weather observations | Map of weather stations | Latest weather observations for VIC | Other Formats
Station Details ID: 081124 Name: YARRAWONGA Lat: -36.03 Lon: 146.03 Height: 128.9 m
Data from the previous 72 hours. | See also: Recent months at Yarrawonga
Date/Time
EDT
Temp
°C
App
Temp
°C
Dew
Point
Rel
Hum
%
Delta-T
°C
Wind Press
QNH
hPa
Press
MSL
hPa
Rain
since 9 am
mm
Dir
 
Spd
km/h
Gust
km/h
Spd
kts
Gust
kts
26/09:30am 19.0 17.2 9.5 54 5.0 SSW 9 15 5 8 1020.3 1020.0 0.0
26/09:00am 17.4 16.1 9.8 61 4.0 SSW 7 11 4 6 1020.3 1020.0 0.0
26/08:30am 15.6 14.3 9.9 69 3.0 SSW 7 11 4 6 1020.2 1019.9 0.0
26/08:00am 14.4 13.2 10.4 77 2.1 SSW 7 9 4 5 1020.3 1020.0 0.0
26/07:30am 12.8 11.8 10.3 85 1.3 SW 6 9 3 5 1020.2 1019.9 0.0
26/07:00am 11.3 11.3 9.7 90 0.8 CALM 0 0 0 0 1019.8 1019.5 0.0
26/06:30am 9.6 9.1 9.3 98 0.1 WSW 2 2 1 1 1019.6 1019.3 0.0
26/06:00am 9.3 7.7 8.7 96 0.3 SW 7 9 4 5 1019.4 1019.1 0.0
26/05:30am 10.0 8.6 8.9 93 0.5 SSW 6 9 3 5 1019.0 1018.7 0.0
26/05:00am 9.8 7.7 8.4 91 0.7 S 9 11 5 6 1018.8 1018.5 0.0
26/04:30am 9.4 7.4 8.5 94 0.4 S 9 11 5 6 1018.4 1018.1 0.0
26/04:00am 9.3 7.6 8.5 95 0.4 SSW 7 7 4 4 1018.3 1018.0 0.0
26/03:30am 9.5 7.9 8.9 96 0.3 SW 7 7 4 4 1018.4 1018.1 0.0
26/03:00am 9.4 8.4 8.9 97 0.2 S 4 6 2 3 1018.4 1018.1 0.0
26/02:30am 9.5 8.1 8.7 95 0.4 SSW 6 7 3 4 1018.6 1018.3 0.0
26/02:00am 10.2 9.1 8.5 89 0.8 SSE 4 6 2 3 1018.7 1018.4 0.0
26/01:30am 11.3 9.9 8.9 85 1.2 SSE 6 7 3 4 1018.9 1018.6 0.0
26/01:00am 12.2 11.1 9.8 85 1.2 W 6 6 3 3 1019.0 1018.7 0.0
26/12:30am 12.6 12.0 10.3 86 1.2 W 4 6 2 3 1019.1 1018.8 0.0
26/12:00am 13.4 13.1 8.7 73 2.4 CALM 0 2 0 1 1019.4 1019.1 0.0
 
Date/Time
EDT
Temp
°C
App
Temp
°C
Dew
Point
Rel
Hum
%
Delta-T
°C
Wind Press
QNH
hPa
Press
MSL
hPa
Rain
since 9 am
mm
Dir
 
Spd
km/h
Gust
km/h
Spd
kts
Gust
kts
25/11:30pm 13.9 13.4 9.5 75 2.3 SW 2 2 1 1 1019.3 1019.0 0.0
25/11:00pm 13.4 13.6 10.6 83 1.5 CALM 0 0 0 0 1019.3 1019.0 0.0
25/10:30pm 14.1 13.8 8.5 69 2.8 CALM 0 0 0 0 1019.4 1019.1 0.0
25/10:00pm 14.4 14.2 9.0 70 2.8 CALM 0 0 0 0 1019.4 1019.1 0.0
25/09:30pm 15.9 14.6 7.7 58 4.1 W 4 4 2 2 1019.3 1019.0 0.0
25/09:00pm 16.6 15.6 7.5 55 4.6 W 2 4 1 2 1019.1 1018.8 0.0
25/08:30pm 17.6 16.4 8.2 54 4.8 WSW 4 4 2 2 1018.9 1018.6 0.0
25/08:00pm 19.5 17.5 6.9 44 6.4 WSW 7 9 4 5 1018.8 1018.5 0.0
25/07:30pm 21.2 17.9 4.7 34 8.1 WSW 11 17 6 9 1018.6 1018.3 0.0
25/07:00pm 22.0 17.9 4.6 32 8.6 WSW 15 26 8 14 1018.4 1018.1 0.0
25/06:30pm 22.1 18.0 4.2 31 8.8 WSW 15 24 8 13 1018.2 1017.9 0.0
25/06:00pm 22.6 18.3 5.1 32 8.7 W 17 26 9 14 1018.1 1017.8 0.0
25/05:30pm 22.6 18.2 4.6 31 8.9 SSW 17 24 9 13 1018.1 1017.8 0.0
25/05:00pm 23.1 19.5 5.1 31 9.0 W 13 28 7 15 1018.3 1018.0 0.0
25/04:30pm 23.3 18.5 5.7 32 8.9 W 20 33 11 18 1018.3 1018.0 0.0
25/04:00pm 21.4 16.8 5.7 36 7.9 SW 19 30 10 16 1018.5 1018.2 0.0
25/03:30pm 22.6 18.5 6.4 35 8.3 SW 17 33 9 18 1018.5 1018.2 0.0
25/03:00pm 21.8 18.4 6.1 36 7.9 WNW 13 22 7 12 1018.5 1018.2 0.0
25/02:30pm 21.6 18.5 5.5 35 8.1 SW 11 24 6 13 1018.6 1018.3 0.0
25/02:00pm 21.0 16.6 6.5 39 7.4 WSW 19 30 10 16 1018.8 1018.5 0.0
25/01:30pm 20.6 16.6 6.5 40 7.2 SW 17 26 9 14 1019.0 1018.7 0.0
25/01:00pm 20.8 18.0 7.1 41 7.0 SSW 11 26 6 14 1019.3 1019.0 0.0
25/12:30pm 18.5 14.6 7.0 47 5.8 WSW 17 24 9 13 1019.4 1019.1 0.0
25/12:00pm 18.9 14.8 6.4 44 6.2 S 17 26 9 14 1019.7 1019.4 0.0
25/11:30am 18.2 13.6 6.7 47 5.8 SSW 20 33 11 18 1019.6 1019.3 0.0
25/11:00am 18.4 14.3 7.8 50 5.4 SW 19 33 10 18 1019.7 1019.4 0.0
25/10:30am 17.6 13.3 7.9 53 5.0 SW 20 32 11 17 1019.6 1019.3 0.0
25/10:00am 16.0 11.6 7.5 57 4.3 SSW 20 30 11 16 1019.6 1019.3 0.0
25/09:30am 15.6 11.3 7.9 60 3.9 SW 20 32 11 17 1019.6 1019.3 0.0
25/09:00am 14.4 10.1 7.9 65 3.2 SW 20 28 11 15 1019.2 1018.9 26.2
25/08:30am 13.5 9.3 8.4 71 2.6 SW 20 26 11 14 1019.0 1018.7 26.2
25/08:00am 12.5 8.5 8.4 76 2.0 WSW 19 24 10 13 1018.7 1018.4 26.2
25/07:30am 11.6 8.4 8.6 82 1.5 WSW 15 22 8 12 1018.2 1017.9 26.2
25/07:00am 10.7 7.5 8.3 85 1.2 WSW 15 20 8 11 1017.8 1017.5 26.2
25/06:30am 9.7 7.3 8.6 93 0.5 W 11 15 6 8 1017.4 1017.1 26.2
25/06:00am 9.2 7.2 8.6 96 0.3 W 9 11 5 6 1017.0 1016.6 26.0
25/05:30am 9.3 7.3 8.8 97 0.2 W 9 9 5 5 1016.4 1016.0 26.0
25/05:00am 9.0 7.0 8.6 97 0.2 WSW 9 9 5 5 1016.0 1015.6 26.0
25/04:30am 9.1 7.1 8.6 97 0.2 WSW 9 11 5 6 1015.7 1015.3 26.0
25/04:00am 9.5 7.1 8.7 95 0.4 WSW 11 13 6 7 1015.4 1015.0 26.0
25/03:30am 10.3 7.9 8.7 90 0.8 WSW 11 15 6 8 1015.1 1014.7 26.0
25/03:00am 10.6 7.9 9.0 90 0.8 WSW 13 17 7 9 1015.0 1014.6 26.0
25/02:30am 11.0 8.3 9.1 88 1.0 WSW 13 17 7 9 1014.8 1014.5 26.0
25/02:00am 11.4 8.9 9.7 89 0.9 WSW 13 17 7 9 1014.4 1014.1 26.0
25/01:30am 11.9 9.0 9.8 87 1.1 SW 15 20 8 11 1014.2 1013.9 26.0
25/01:00am 12.4 9.6 10.1 86 1.2 WSW 15 19 8 10 1014.0 1013.7 26.0
25/12:30am 13.2 9.8 10.6 84 1.4 SW 19 26 10 14 1013.6 1013.3 26.0
25/12:00am 14.0 9.9 10.2 78 2.0 SW 22 32 12 17 1013.3 1013.0 26.0
 
Date/Time
EDT
Temp
°C
App
Temp
°C
Dew
Point
Rel
Hum
%
Delta-T
°C
Wind Press
QNH
hPa
Press
MSL
hPa
Rain
since 9 am
mm
Dir
 
Spd
km/h
Gust
km/h
Spd
kts
Gust
kts
24/11:30pm 14.8 10.4 11.8 82 1.6 SW 26 39 14 21 1012.9 1012.6 26.0
24/11:00pm 15.6 10.0 13.4 87 1.2 SW 35 46 19 25 1012.5 1012.2 26.0
24/10:54pm 15.9 11.9 14.1 89 1.0 SW 28 46 15 25 1012.4 1012.1 26.0
24/10:30pm 16.7 14.5 14.9 89 1.0 SW 20 33 11 18 1011.5 1011.2 26.0
24/10:00pm 17.1 15.1 15.6 91 0.9 SSW 20 26 11 14 1010.6 1010.2 26.0
24/09:30pm 19.2 18.2 18.9 98 0.2 SW 22 32 12 17 1009.6 1009.2 26.0
24/09:00pm 19.6 19.4 19.3 98 0.2 W 19 24 10 13 1008.7 1008.3 26.0
24/08:30pm 19.6 20.9 19.3 98 0.2 W 11 17 6 9 1008.5 1008.1 26.0
24/08:00pm 19.6 20.5 19.3 98 0.2 NW 13 17 7 9 1008.8 1008.4 26.0
24/07:30pm 19.5 21.2 19.3 99 0.1 WNW 9 22 5 12 1007.5 1007.1 26.0
24/07:00pm 19.2 19.6 19.0 99 0.1 NW 15 20 8 11 1007.6 1007.2 23.2
24/06:30pm 18.1 18.7 17.8 98 0.2 NW 11 19 6 10 1007.1 1006.7 18.8
24/06:00pm 18.1 19.7 17.8 98 0.2 NNW 6 11 3 6 1006.5 1006.2 12.4
24/05:30pm 17.9 18.8 17.6 98 0.2 N 9 13 5 7 1006.3 1006.0 10.4
24/05:00pm 17.9 18.8 17.6 98 0.2 NW 9 15 5 8 1006.7 1006.4 10.2
24/04:49pm 17.5 17.9 17.2 98 0.2 NW 11 22 6 12 1007.3 1006.9 9.6
24/04:38pm 17.3 12.3 16.2 93 0.7 WNW 37 59 20 32 1009.3 1008.9 5.2
24/04:36pm 20.0 9.9 16.6 81 2.1 W 65 83 35 45 1009.8 1009.4 2.6
24/04:34pm 25.7 22.9 18.1 63 4.8 W 30 67 16 36 1009.2 1008.8 1.6
24/04:30pm 25.6 24.7 17.8 62 4.9 N 19 30 10 16 1006.9 1006.5 1.6
24/04:00pm 26.8 25.2 18.4 60 5.4 NNE 24 33 13 18 1006.0 1005.7 1.6
24/03:30pm 26.6 24.9 18.2 60 5.4 N 24 35 13 19 1007.0 1006.6 1.6
24/03:00pm 25.6 24.6 18.0 63 4.8 N 20 28 11 15 1007.9 1007.5 1.6
24/02:30pm 25.4 24.1 18.1 64 4.6 N 22 30 12 16 1008.2 1007.8 1.6
24/02:00pm 24.5 24.3 18.4 69 3.9 NNE 17 22 9 12 1009.0 1008.6 1.6
24/01:30pm 23.4 24.7 18.5 74 3.1 N 9 15 5 8 1009.9 1009.5 1.6
24/01:00pm 22.9 24.5 18.2 75 3.0 NNW 7 9 4 5 1010.1 1009.7 1.6
24/12:30pm 22.3 23.4 18.9 81 2.2 WNW 11 19 6 10 1010.4 1010.0 1.6
24/12:00pm 22.5 22.6 18.3 77 2.6 WNW 15 28 8 15 1010.0 1009.6 1.6
24/11:30am 22.4 22.2 18.6 79 2.4 N 17 26 9 14 1009.9 1009.5 1.6
24/11:00am 21.4 20.1 19.0 86 1.5 N 24 30 13 16 1009.9 1009.5 1.6
24/10:30am 21.1 18.7 18.3 84 1.8 NNW 28 39 15 21 1010.9 1010.6 1.4
24/10:00am 21.6 19.6 18.2 81 2.1 NW 26 39 14 21 1011.1 1010.8 0.4
24/09:30am 23.8 20.6 16.3 63 4.6 NNW 28 37 15 20 1011.1 1010.8 0.0
24/09:00am 25.3 20.8 15.0 53 6.2 NNW 32 43 17 23 1010.9 1010.6 0.0
24/08:30am 25.6 21.0 14.7 51 6.6 N 32 48 17 26 1010.9 1010.6 0.0
24/08:00am 25.4 22.6 14.2 50 6.7 N 22 32 12 17 1011.4 1011.1 0.0
24/07:30am 25.2 22.6 12.1 44 7.5 N 17 30 9 16 1011.5 1011.2 0.0
24/07:00am 23.6 20.7 11.0 45 7.1 NNE 17 26 9 14 1010.3 1009.9 0.0
24/06:30am 22.4 21.4 10.9 48 6.4 NE 7 13 4 7 1010.7 1010.4 0.0
24/06:00am 20.8 19.4 10.9 53 5.5 NNE 9 13 5 7 1010.0 1009.6 0.0
24/05:30am 20.8 19.4 10.9 53 5.5 NE 9 15 5 8 1010.3 1009.9 0.0
24/05:00am 20.5 19.5 10.9 54 5.3 NE 7 9 4 5 1009.9 1009.5 0.0
24/04:30am 21.1 19.2 10.6 51 5.8 NE 11 15 6 8 1009.8 1009.4 0.0
24/04:00am 20.8 19.2 11.4 55 5.2 NE 11 13 6 7 1009.9 1009.5 0.0
24/03:30am 20.3 19.9 12.5 61 4.4 NE 6 9 3 5 1010.3 1009.9 0.0
24/03:00am 19.5 19.0 12.0 62 4.2 ENE 6 7 3 4 1010.2 1009.8 0.0
24/02:30am 19.8 19.1 12.1 61 4.3 E 7 9 4 5 1010.9 1010.6 0.0
24/02:00am 21.7 21.5 11.7 53 5.6 SE 4 7 2 4 1011.3 1011.0 0.0
24/01:30am 22.6 22.2 12.3 52 5.9 ESE 6 7 3 4 1011.5 1011.2 0.0
24/01:00am 22.9 21.8 11.9 50 6.2 NNW 9 15 5 8 1012.1 1011.8 0.0
24/12:30am 22.6 20.6 11.4 49 6.3 SW 13 19 7 10 1013.0 1012.7 0.0
24/12:00am 25.4 20.2 7.1 31 9.7 SW 24 32 13 17 1012.3 1012.0 0.0
 
Date/Time
EDT
Temp
°C
App
Temp
°C
Dew
Point
Rel
Hum
%
Delta-T
°C
Wind Press
QNH
hPa
Press
MSL
hPa
Rain
since 9 am
mm
Dir
 
Spd
km/h
Gust
km/h
Spd
kts
Gust
kts
23/11:30pm 25.8 23.0 6.9 30 10.0 SW 11 20 6 11 1012.8 1012.5 0.0
23/11:00pm 25.3 23.4 7.4 32 9.5 SE 7 13 4 7 1010.8 1010.5 0.0
23/10:30pm 25.6 22.7 8.1 33 9.4 WSW 13 19 7 10 1012.0 1011.7 0.0
23/10:00pm 26.1 24.0 8.1 32 9.7 WNW 9 13 5 7 1012.6 1012.3 0.0
23/09:30pm 26.9 25.4 8.4 31 10.1 W 6 7 3 4 1012.5 1012.2 0.0
23/09:00pm 27.5 24.9 7.9 29 10.6 WSW 11 15 6 8 1012.8 1012.5 0.0
23/08:30pm 28.7 24.6 7.9 27 11.3 WSW 19 26 10 14 1012.2 1011.9 0.0
23/08:00pm 29.9 26.7 9.9 29 11.3 W 17 24 9 13 1011.6 1011.3 0.0
23/07:30pm 30.7 27.2 10.1 28 11.8 W 19 24 10 13 1010.7 1010.4 0.0
23/07:00pm 31.4 27.5 10.7 28 12.0 W 22 30 12 16 1010.2 1009.8 0.0
23/06:30pm 32.1 27.6 10.2 26 12.6 W 24 30 13 16 1010.1 1009.7 0.0
23/06:00pm 33.3 29.5 12.3 28 12.6 W 24 33 13 18 1009.8 1009.4 0.0
23/05:30pm 34.2 31.2 12.5 27 13.1 W 20 26 11 14 1009.7 1009.3 0.0
23/05:00pm 34.0 30.4 12.9 28 12.8 W 24 39 13 21 1009.6 1009.2 0.0
23/04:30pm 34.7 31.2 13.5 28 13.0 WNW 24 35 13 19 1009.8 1009.4 0.0
23/04:00pm 34.4 31.8 13.3 28 12.9 WNW 19 26 10 14 1009.8 1009.4 0.0
23/03:30pm 35.5 32.5 12.5 25 13.9 W 20 30 11 16 1009.4 1009.0 0.0
23/03:00pm 34.7 31.8 12.4 26 13.4 WNW 19 28 10 15 1009.4 1009.0 0.0
23/02:30pm 34.5 33.1 13.3 27 12.9 NNW 13 22 7 12 1009.6 1009.2 0.0
23/02:00pm 34.3 33.2 13.2 28 12.8 N 11 20 6 11 1009.5 1009.1 0.0
23/01:30pm 32.6 31.6 13.3 31 11.7 NNW 11 19 6 10 1009.8 1009.4 0.0
23/01:00pm 32.2 31.6 13.4 32 11.4 N 9 20 5 11 1010.1 1009.7 0.0
23/12:30pm 31.6 31.2 12.9 32 11.2 S 7 11 4 6 1010.3 1009.9 0.0
23/12:00pm 31.3 31.1 13.1 33 10.9 SE 6 15 3 8 1010.4 1010.0 0.0
23/11:30am 30.3 30.1 13.6 36 10.1 SE 7 13 4 7 1010.6 1010.2 0.0
23/11:00am 29.2 28.8 14.2 40 9.1 S 9 15 5 8 1010.9 1010.6 0.0
23/10:30am 28.0 27.8 14.6 44 8.1 S 9 17 5 9 1011.1 1010.8 0.0
23/10:00am 26.8 27.3 15.5 50 6.9 SSW 7 13 4 7 1011.2 1010.9 0.0

Other Formats:

Comma delimited format used in spreadsheet applications
http://www.bom.gov.au/fwo/IDV60801/IDV60801.94862.axf

JavaScript Object Notation format (JSON) in row-major order
http://www.bom.gov.au/fwo/IDV60801/IDV60801.94862.json